Time;durP1;ratioP1;P1;durP2;ratioP2;P2;SDS_P1;SDS_P2;PMS_P1;PMS_P2;Temp;Humidity;BMP_temperature;BMP_pressure;BME280_temperature;BME280_humidity;BME280_pressure;Samples;Min_cycle;Max_cycle;Signal;HPM_P1;HPM_P2
2021/09/21 00:00:52;;;;;;;7.00;6.40;;;12.30;99.90;;;;;;5057599;28;20458;-49
2021/09/21 00:03:19;;;;;;;7.57;6.23;;;12.30;99.90;;;;;;5057726;28;20489;-50
2021/09/21 00:05:46;;;;;;;6.83;6.23;;;12.20;1.00;;;;;;5057676;28;20904;-50
2021/09/21 00:08:13;;;;;;;7.30;6.60;;;12.20;99.90;;;;;;5057721;28;20494;-55
2021/09/21 00:10:40;;;;;;;7.37;6.67;;;12.20;1.00;;;;;;5057127;28;20458;-50
2021/09/21 00:13:07;;;;;;;8.77;7.50;;;12.10;1.00;;;;;;5057245;28;20466;-52
2021/09/21 00:15:39;;;;;;;7.43;6.70;;;12.10;1.00;;;;;;5057568;28;20473;-52
2021/09/21 00:18:07;;;;;;;8.00;7.20;;;12.10;1.00;;;;;;5057614;28;20925;-48
2021/09/21 00:20:34;;;;;;;7.07;6.50;;;12.10;1.00;;;;;;5057519;28;20514;-53
2021/09/21 00:23:02;;;;;;;7.80;7.10;;;12.00;1.00;;;;;;5057277;28;20900;-49
2021/09/21 00:25:29;;;;;;;7.07;6.47;;;12.00;1.00;;;;;;5057122;28;20911;-50
2021/09/21 00:27:56;;;;;;;8.87;6.67;;;11.90;1.00;;;;;;5057048;28;20470;-49
2021/09/21 00:30:24;;;;;;;6.90;6.30;;;11.90;1.00;;;;;;5057285;28;20489;-48
2021/09/21 00:33:01;;;;;;;8.17;6.80;;;11.90;1.00;;;;;;5056616;28;20468;-52
2021/09/21 00:35:30;;;;;;;8.37;7.30;;;11.90;1.00;;;;;;5056943;28;20528;-47
2021/09/21 00:37:57;;;;;;;7.70;7.10;;;11.80;1.00;;;;;;5057444;28;20914;-50
2021/09/21 00:40:24;;;;;;;8.20;7.40;;;11.90;1.00;;;;;;5056945;28;20458;-50
2021/09/21 00:42:52;;;;;;;8.33;7.57;;;11.90;1.00;;;;;;5056492;28;20465;-48
2021/09/21 00:45:24;;;;;;;9.07;7.40;;;12.00;1.00;;;;;;5057299;28;20463;-54
2021/09/21 00:47:53;;;;;;;7.83;7.13;;;12.00;1.00;;;;;;5057047;28;20492;-50
2021/09/21 00:50:22;;;;;;;7.93;6.90;;;12.00;1.00;;;;;;5055827;28;20461;-53
2021/09/21 00:52:51;;;;;;;12.93;7.23;;;12.00;1.00;;;;;;5056072;28;20473;-52
2021/09/21 00:55:18;;;;;;;8.43;7.47;;;12.10;1.00;;;;;;5055983;28;20473;-48
2021/09/21 00:57:46;;;;;;;8.00;7.17;;;12.00;1.00;;;;;;5056123;28;20901;-49
2021/09/21 01:00:15;;;;;;;7.37;6.77;;;12.00;1.00;;;;;;5056218;28;20904;-51
2021/09/21 01:02:44;;;;;;;9.23;7.03;;;12.00;1.00;;;;;;5056627;28;20885;-53
2021/09/21 01:05:11;;;;;;;8.17;7.37;;;12.00;1.00;;;;;;5056660;28;20469;-53
2021/09/21 01:07:39;;;;;;;7.70;6.90;;;12.00;1.00;;;;;;5056947;28;20462;-48
2021/09/21 01:10:10;;;;;;;8.40;7.50;;;11.90;1.00;;;;;;5050006;28;20495;-50
2021/09/21 01:12:38;;;;;;;7.50;6.90;;;11.90;1.00;;;;;;5037389;28;20447;-50
2021/09/21 01:15:10;;;;;;;8.10;7.30;;;11.90;1.00;;;;;;5036556;28;20570;-52
2021/09/21 01:17:37;;;;;;;9.33;7.30;;;11.90;1.00;;;;;;5036873;28;20901;-51
2021/09/21 01:20:07;;;;;;;8.73;6.90;;;11.90;1.00;;;;;;5037050;28;20455;-50
2021/09/21 01:22:35;;;;;;;8.33;7.47;;;11.90;1.00;;;;;;5051545;28;20528;-52
2021/09/21 01:25:03;;;;;;;10.93;7.20;;;11.90;1.00;;;;;;5056365;28;20444;-52
2021/09/21 01:27:30;;;;;;;6.00;5.50;;;11.80;1.00;;;;;;5056981;28;20469;-50
2021/09/21 01:29:58;;;;;;;7.60;6.03;;;11.80;1.00;;;;;;5055990;28;20499;-52
2021/09/21 01:32:26;;;;;;;7.43;6.73;;;11.80;1.00;;;;;;5057026;28;20462;-50
2021/09/21 01:34:53;;;;;;;8.70;6.03;;;11.70;1.00;;;;;;5056080;28;20444;-51
2021/09/21 01:37:22;;;;;;;8.20;7.17;;;11.70;1.00;;;;;;5056375;28;20473;-53
2021/09/21 01:39:53;;;;;;;6.67;6.07;;;11.70;1.00;;;;;;5056637;28;20536;-53
2021/09/21 01:42:21;;;;;;;7.90;6.27;;;11.70;1.00;;;;;;5056691;28;20873;-55
2021/09/21 01:44:48;;;;;;;7.93;6.77;;;11.70;1.00;;;;;;5056245;28;20462;-55
2021/09/21 01:47:16;;;;;;;6.50;5.90;;;11.70;1.00;;;;;;5059692;28;20473;-51
2021/09/21 01:49:52;;;;;;;7.10;6.50;;;11.60;1.00;;;;;;5060253;28;20780;-49
2021/09/21 01:52:23;;;;;;;6.47;5.87;;;11.60;1.00;;;;;;5060111;28;20466;-53
2021/09/21 02:00:20;;;;;;;7.10;6.40;;;11.40;1.00;;;;;;5059957;28;20440;-55
2021/09/21 02:02:47;;;;;;;6.37;5.77;;;11.30;1.00;;;;;;5059903;28;20458;-54
2021/09/21 02:05:15;;;;;;;7.60;6.90;;;11.20;1.00;;;;;;5060037;28;20453;-54
2021/09/21 02:07:42;;;;;;;7.53;6.70;;;11.20;1.00;;;;;;5060116;28;20458;-49
2021/09/21 02:10:11;;;;;;;7.73;6.90;;;11.20;1.00;;;;;;5059716;28;20494;-50
2021/09/21 02:12:38;;;;;;;6.90;6.20;;;11.10;1.00;;;;;;5060027;28;20461;-53
2021/09/21 02:15:06;;;;;;;6.97;6.10;;;11.00;1.00;;;;;;5059264;28;20512;-56
2021/09/21 02:17:37;;;;;;;7.67;6.97;;;10.80;1.00;;;;;;5059812;28;20565;-50
2021/09/21 02:20:08;;;;;;;7.40;6.70;;;10.70;1.00;;;;;;5059944;28;20458;-52
2021/09/21 02:22:35;;;;;;;8.33;6.03;;;10.60;1.00;;;;;;5059833;28;20468;-51
2021/09/21 02:25:04;;;;;;;7.63;6.90;;;10.60;3.00;;;;;;5059494;28;20462;-50
2021/09/21 02:27:33;;;;;;;15.33;7.20;;;10.60;12.00;;;;;;5059609;28;20557;-53
2021/09/21 02:30:00;;;;;;;8.73;6.30;;;10.60;18.40;;;;;;5059546;28;20499;-49
2021/09/21 02:32:27;;;;;;;7.13;6.43;;;10.50;43.60;;;;;;5060081;28;20466;-52
2021/09/21 02:34:54;;;;;;;7.07;6.37;;;10.40;99.90;;;;;;5059317;28;20527;-50
2021/09/21 02:37:21;;;;;;;8.70;7.43;;;10.40;99.90;;;;;;5059401;28;20811;-50
2021/09/21 02:39:48;;;;;;;7.60;6.90;;;10.30;54.70;;;;;;5059309;28;20459;-55
2021/09/21 02:42:15;;;;;;;7.03;6.33;;;10.20;10.90;;;;;;5059289;28;20579;-49
2021/09/21 02:44:46;;;;;;;7.27;6.63;;;10.20;3.50;;;;;;5059121;28;20466;-50
2021/09/21 02:47:13;;;;;;;7.37;6.67;;;10.10;1.00;;;;;;5058933;28;20520;-49
2021/09/21 02:49:40;;;;;;;8.83;7.93;;;10.00;18.20;;;;;;5059079;28;20490;-52
2021/09/21 02:52:07;;;;;;;8.53;7.73;;;9.90;70.70;;;;;;5059371;28;20466;-53
2021/09/21 02:54:34;;;;;;;10.87;7.90;;;9.80;99.90;;;;;;5059167;28;20466;-47
2021/09/21 02:57:01;;;;;;;7.93;7.23;;;9.80;99.90;;;;;;5058352;28;20746;-47
2021/09/21 02:59:28;;;;;;;8.10;7.20;;;9.70;99.90;;;;;;5059360;28;20520;-50
2021/09/21 03:01:57;;;;;;;9.07;8.20;;;9.60;99.90;;;;;;5058978;28;20882;-48
2021/09/21 03:04:28;;;;;;;9.43;8.30;;;9.60;99.90;;;;;;5058940;28;20462;-47
2021/09/21 03:07:02;;;;;;;8.40;7.70;;;9.60;99.90;;;;;;5058636;28;20825;-49
2021/09/21 03:09:48;;;;;;;9.20;8.30;;;9.60;99.90;;;;;;5056924;28;20561;-50
2021/09/21 03:12:22;;;;;;;9.07;8.17;;;9.50;99.90;;;;;;5038045;28;20481;-51
2021/09/21 03:17:35;;;;;;;8.67;7.70;;;9.40;99.90;;;;;;5038357;28;20434;-53
2021/09/21 03:20:03;;;;;;;9.80;8.10;;;9.30;99.90;;;;;;5038816;28;20542;-52
2021/09/21 03:22:30;;;;;;;11.87;8.20;;;9.20;99.90;;;;;;5052911;28;20515;-55
2021/09/21 03:25:01;;;;;;;9.90;8.93;;;9.20;1.00;;;;;;5058020;28;20470;-54
2021/09/21 03:27:28;;;;;;;9.80;8.90;;;9.20;1.00;;;;;;5058266;28;20465;-51
2021/09/21 03:29:55;;;;;;;10.30;8.53;;;9.10;1.00;;;;;;5058267;28;20555;-53
2021/09/21 03:32:23;;;;;;;10.10;8.60;;;9.10;8.30;;;;;;5058352;28;20519;-53
2021/09/21 03:34:51;;;;;;;11.17;9.40;;;9.00;99.90;;;;;;5058422;28;20488;-52
2021/09/21 03:37:19;;;;;;;9.50;8.30;;;8.90;99.90;;;;;;5058249;28;20524;-51
2021/09/21 03:39:46;;;;;;;10.03;8.33;;;8.90;1.00;;;;;;5057936;28;20454;-52
2021/09/21 03:42:13;;;;;;;10.30;9.30;;;8.90;81.70;;;;;;5058287;28;20466;-49
2021/09/21 03:44:41;;;;;;;11.97;8.80;;;8.80;99.90;;;;;;5057938;28;20536;-53
2021/09/21 03:47:09;;;;;;;11.03;8.47;;;8.80;99.90;;;;;;5057734;28;20470;-51
2021/09/21 03:49:36;;;;;;;10.33;9.27;;;8.80;99.90;;;;;;5057814;28;20490;-53
2021/09/21 03:52:05;;;;;;;10.83;8.97;;;8.70;99.90;;;;;;5058414;28;20487;-49
2021/09/21 03:54:35;;;;;;;8.30;7.50;;;8.60;99.90;;;;;;5058078;28;20535;-54
2021/09/21 03:57:04;;;;;;;10.27;8.87;;;8.70;99.90;;;;;;5057616;28;20758;-47
2021/09/21 03:59:31;;;;;;;9.70;8.67;;;8.60;1.00;;;;;;5057819;28;20473;-55
2021/09/21 04:01:58;;;;;;;10.27;9.13;;;8.60;1.00;;;;;;5057940;28;20512;-48
2021/09/21 04:04:28;;;;;;;10.67;9.60;;;8.50;99.90;;;;;;5057854;28;20517;-53
2021/09/21 04:06:56;;;;;;;9.67;8.80;;;8.40;1.00;;;;;;5057278;28;20520;-53
2021/09/21 04:09:24;;;;;;;10.90;9.30;;;8.40;1.00;;;;;;5056801;28;20512;-52
2021/09/21 04:11:51;;;;;;;10.43;9.13;;;8.30;50.90;;;;;;5057679;28;20516;-50
2021/09/21 04:14:18;;;;;;;10.53;9.07;;;8.30;1.00;;;;;;5057186;28;20469;-52
2021/09/21 04:16:46;;;;;;;10.27;9.17;;;8.30;68.00;;;;;;5057392;28;20971;-47
2021/09/21 04:19:13;;;;;;;10.33;9.33;;;8.30;99.90;;;;;;5057392;28;20454;-49
2021/09/21 04:21:40;;;;;;;9.87;8.87;;;8.30;99.90;;;;;;5057372;28;20804;-47
2021/09/21 04:24:07;;;;;;;14.90;10.13;;;8.30;1.00;;;;;;5057467;28;20462;-52
2021/09/21 04:26:35;;;;;;;11.23;10.10;;;8.20;99.90;;;;;;5055969;28;20508;-50
2021/09/21 04:29:02;;;;;;;9.90;8.90;;;8.20;30.00;;;;;;5055461;28;20544;-52
2021/09/21 04:31:31;;;;;;;11.23;10.03;;;8.20;1.00;;;;;;5056608;28;20557;-50
2021/09/21 04:33:58;;;;;;;9.77;8.60;;;8.20;99.90;;;;;;5056691;28;20472;-50
2021/09/21 04:36:26;;;;;;;11.67;9.50;;;8.10;99.90;;;;;;5056764;28;20478;-52
2021/09/21 04:38:53;;;;;;;12.17;9.03;;;8.00;99.90;;;;;;5056489;28;20462;-55
2021/09/21 04:41:20;;;;;;;10.63;9.20;;;8.10;99.90;;;;;;5056630;28;20458;-53
2021/09/21 04:43:48;;;;;;;11.10;10.00;;;8.00;11.90;;;;;;5056884;28;20462;-52
2021/09/21 04:46:16;;;;;;;9.70;8.70;;;8.00;99.90;;;;;;5056879;28;20894;-47
2021/09/21 04:48:44;;;;;;;11.63;9.80;;;7.90;1.00;;;;;;5056656;28;20462;-53
2021/09/21 04:51:11;;;;;;;13.77;9.90;;;7.90;77.30;;;;;;5056865;28;20597;-50
2021/09/21 04:53:38;;;;;;;12.43;9.63;;;7.80;99.90;;;;;;5056728;28;20532;-52
2021/09/21 04:56:07;;;;;;;12.20;9.20;;;7.80;99.90;;;;;;5056763;28;20462;-54
2021/09/21 04:58:34;;;;;;;11.60;10.17;;;7.80;1.00;;;;;;5053415;28;20506;-51
2021/09/21 05:01:03;;;;;;;12.20;10.23;;;7.80;1.00;;;;;;5042444;28;20506;-52
2021/09/21 05:03:31;;;;;;;11.10;9.33;;;7.70;1.00;;;;;;5036609;28;20463;-47
2021/09/21 05:05:58;;;;;;;11.23;9.67;;;7.70;1.00;;;;;;5039704;28;20481;-53
2021/09/21 05:08:25;;;;;;;12.73;8.97;;;7.70;1.00;;;;;;5041339;28;20475;-50
2021/09/21 05:10:52;;;;;;;9.93;8.50;;;7.60;99.90;;;;;;5035990;28;20854;-52
2021/09/21 05:13:19;;;;;;;12.73;10.03;;;7.60;1.00;;;;;;5036609;28;20463;-53
2021/09/21 05:15:46;;;;;;;15.43;10.30;;;7.60;1.00;;;;;;5040797;28;20473;-55
2021/09/21 05:18:15;;;;;;;11.70;9.67;;;7.60;1.00;;;;;;5055990;28;20817;-56
2021/09/21 05:20:42;;;;;;;10.60;9.50;;;7.60;1.00;;;;;;5058770;28;20528;-54
2021/09/21 05:23:09;;;;;;;9.83;8.87;;;7.60;1.00;;;;;;5048827;28;20481;-48
2021/09/21 05:25:37;;;;;;;13.67;9.73;;;7.50;1.00;;;;;;5040714;28;20533;-53
2021/09/21 05:28:07;;;;;;;9.40;8.47;;;7.50;1.00;;;;;;5038511;28;20499;-56
2021/09/21 05:30:34;;;;;;;9.57;8.27;;;7.50;99.90;;;;;;5037972;28;20498;-55
2021/09/21 05:33:01;;;;;;;12.00;8.60;;;7.40;1.00;;;;;;5038063;28;20470;-53
2021/09/21 05:35:30;;;;;;;8.80;7.63;;;7.50;1.00;;;;;;5040376;28;20525;-52
2021/09/21 05:37:56;;;;;;;8.60;7.70;;;7.50;1.00;;;;;;5043348;28;21818;-54
2021/09/21 05:40:25;;;;;;;9.03;8.10;;;7.40;1.00;;;;;;5045953;28;20467;-47
2021/09/21 05:42:52;;;;;;;9.73;8.67;;;7.40;1.00;;;;;;5040846;28;20486;-51
2021/09/21 05:45:21;;;;;;;10.27;8.53;;;7.50;1.00;;;;;;5040093;28;20440;-52
2021/09/21 05:47:54;;;;;;;13.13;9.60;;;7.60;1.00;;;;;;5038518;28;20463;-48
2021/09/21 05:50:22;;;;;;;13.57;8.77;;;7.60;1.00;;;;;;5038851;28;20885;-52
2021/09/21 05:52:51;;;;;;;9.90;8.90;;;7.70;1.00;;;;;;5039244;28;20474;-52
2021/09/21 05:55:18;;;;;;;13.20;7.50;;;7.80;1.00;;;;;;5040016;28;20532;-50
2021/09/21 05:57:45;;;;;;;10.60;8.37;;;7.80;99.90;;;;;;5045332;28;20465;-47
2021/09/21 06:00:14;;;;;;;8.17;7.43;;;7.90;99.90;;;;;;5059032;28;20885;-52
2021/09/21 06:02:41;;;;;;;11.13;7.13;;;7.90;99.90;;;;;;5058155;28;20527;-47
2021/09/21 06:05:09;;;;;;;9.67;8.30;;;8.00;53.30;;;;;;5058149;28;20829;-48
2021/09/21 06:07:36;;;;;;;8.90;8.00;;;8.10;1.00;;;;;;5058973;28;20461;-52
2021/09/21 06:10:05;;;;;;;8.27;7.13;;;8.30;1.00;;;;;;5053364;28;20486;-55
2021/09/21 06:12:33;;;;;;;9.10;8.10;;;8.40;99.90;;;;;;5039363;28;20513;-47
2021/09/21 06:15:01;;;;;;;11.73;8.80;;;8.50;99.90;;;;;;5039845;28;20463;-51
2021/09/21 06:17:28;;;;;;;15.90;8.27;;;8.70;99.90;;;;;;5039729;28;20482;-47
2021/09/21 06:19:55;;;;;;;10.07;9.03;;;8.90;99.90;;;;;;5039554;28;20463;-51
2021/09/21 06:22:22;;;;;;;14.03;10.60;;;9.10;99.90;;;;;;5052781;28;20466;-54
2021/09/21 06:24:51;;;;;;;12.20;10.60;;;9.30;1.00;;;;;;5059485;28;20771;-55
2021/09/21 06:27:20;;;;;;;12.23;10.93;;;9.40;99.90;;;;;;5059325;28;20466;-55
2021/09/21 06:29:47;;;;;;;19.30;10.87;;;9.60;99.90;;;;;;5058582;28;20780;-57
2021/09/21 06:32:14;;;;;;;14.00;10.40;;;9.80;1.00;;;;;;5058122;28;20467;-55
2021/09/21 06:34:46;;;;;;;12.20;9.70;;;10.00;99.90;;;;;;5058457;28;20462;-56
2021/09/21 06:37:14;;;;;;;16.63;11.30;;;10.20;93.20;;;;;;5059062;28;20462;-53
2021/09/21 06:39:41;;;;;;;13.10;11.60;;;10.30;1.00;;;;;;5059183;28;20473;-50
2021/09/21 06:42:09;;;;;;;11.60;10.40;;;10.60;1.00;;;;;;5058889;28;20942;-50
2021/09/21 06:44:43;;;;;;;17.00;10.83;;;10.70;1.00;;;;;;5059632;28;20525;-51
2021/09/21 06:47:10;;;;;;;18.90;11.80;;;11.00;1.00;;;;;;5059092;28;20552;-53
2021/09/21 06:49:37;;;;;;;15.97;10.80;;;11.20;1.00;;;;;;5059131;28;20473;-57
2021/09/21 06:52:04;;;;;;;14.43;10.30;;;11.30;1.00;;;;;;5058906;28;20493;-50
2021/09/21 06:54:35;;;;;;;15.50;10.90;;;11.50;1.00;;;;;;5059095;28;20462;-49
2021/09/21 06:57:07;;;;;;;14.20;10.50;;;11.60;1.00;;;;;;5058185;28;20553;-51
2021/09/21 06:59:34;;;;;;;15.40;8.77;;;11.80;1.00;;;;;;5058996;28;20896;-50
2021/09/21 07:02:02;;;;;;;11.73;9.50;;;11.80;1.00;;;;;;5058623;28;20516;-53
2021/09/21 07:04:29;;;;;;;12.30;9.33;;;11.80;1.00;;;;;;5058904;28;20462;-50
2021/09/21 07:06:58;;;;;;;13.43;9.73;;;12.00;1.00;;;;;;5058576;28;20458;-48
2021/09/21 07:09:28;;;;;;;14.17;10.10;;;12.20;1.00;;;;;;5056960;28;20461;-50
2021/09/21 07:11:58;;;;;;;11.83;10.50;;;12.40;1.00;;;;;;5038692;28;20548;-53
2021/09/21 07:14:25;;;;;;;17.60;11.17;;;12.50;1.00;;;;;;5038783;28;20521;-48
2021/09/21 07:16:52;;;;;;;12.37;10.23;;;12.60;1.00;;;;;;5038891;28;20909;-52
2021/09/21 07:19:21;;;;;;;14.60;10.83;;;12.80;1.00;;;;;;5054476;28;20466;-53
2021/09/21 07:21:48;;;;;;;11.77;10.27;;;13.20;1.00;;;;;;5058053;28;20462;-50
2021/09/21 07:24:16;;;;;;;9.93;8.93;;;13.60;1.00;;;;;;5042840;28;20462;-49
2021/09/21 07:26:46;;;;;;;10.33;9.20;;;13.90;99.90;;;;;;5058276;28;20971;-51
2021/09/21 07:29:15;;;;;;;14.53;9.13;;;14.10;99.90;;;;;;5058207;28;20543;-55
2021/09/21 07:31:42;;;;;;;14.13;9.20;;;14.10;99.90;;;;;;5058167;28;20497;-53
2021/09/21 07:34:13;;;;;;;11.23;9.63;;;14.00;99.90;;;;;;5058626;28;20462;-48
2021/09/21 07:36:44;;;;;;;11.83;8.70;;;14.40;99.90;;;;;;5057972;28;20949;-47
2021/09/21 07:39:11;;;;;;;17.67;10.37;;;14.60;99.90;;;;;;5057476;28;20462;-49
2021/09/21 07:41:44;;;;;;;12.83;8.57;;;14.90;99.90;;;;;;5057870;28;20512;-50
2021/09/21 07:44:15;;;;;;;13.07;10.00;;;15.10;99.90;;;;;;5057994;28;20486;-52
2021/09/21 07:46:45;;;;;;;13.80;10.50;;;15.50;99.90;;;;;;5046937;28;20463;-47
2021/09/21 07:49:12;;;;;;;21.30;9.57;;;15.80;99.90;;;;;;5058209;28;20535;-47
2021/09/21 07:51:41;;;;;;;12.30;10.23;;;16.00;99.90;;;;;;5057950;28;20490;-47
2021/09/21 07:54:08;;;;;;;13.77;10.00;;;16.20;99.90;;;;;;5058054;28;20462;-54
2021/09/21 07:56:36;;;;;;;14.17;10.03;;;16.30;99.90;;;;;;5045725;28;20473;-52
2021/09/21 07:59:04;;;;;;;11.57;8.90;;;16.40;99.90;;;;;;5037024;28;20580;-48
2021/09/21 08:01:31;;;;;;;10.37;7.53;;;16.80;99.90;;;;;;5057007;28;20463;-45
2021/09/21 08:04:06;;;;;;;12.93;8.83;;;17.20;99.90;;;;;;5055743;28;20494;-47
2021/09/21 08:23:24;;;;;;;8.50;6.63;;;18.10;99.90;;;;;;5036091;28;20453;-45
2021/09/21 08:25:52;;;;;;;6.20;5.33;;;18.30;99.90;;;;;;5037311;28;20517;-55
2021/09/21 08:28:18;;;;;;;6.60;6.00;;;18.30;99.90;;;;;;5037404;28;20525;-52
2021/09/21 08:30:48;;;;;;;7.90;6.60;;;18.50;99.90;;;;;;5036759;28;20557;-48
2021/09/21 08:33:15;;;;;;;5.27;4.77;;;18.10;99.90;;;;;;5037385;28;20459;-51
2021/09/21 08:35:42;;;;;;;6.90;5.63;;;18.50;99.90;;;;;;5037333;28;20902;-45
2021/09/21 08:38:15;;;;;;;7.00;6.30;;;18.80;99.90;;;;;;5037351;28;20466;-45
2021/09/21 08:40:44;;;;;;;8.43;5.90;;;18.60;99.90;;;;;;5036562;28;20471;-46
2021/09/21 08:43:13;;;;;;;7.73;4.50;;;18.90;99.90;;;;;;5049989;28;20433;-45
2021/09/21 08:45:40;;;;;;;6.43;3.87;;;19.10;99.90;;;;;;5056514;28;20575;-44
2021/09/21 08:48:07;;;;;;;4.30;3.90;;;19.30;99.90;;;;;;5057187;28;20519;-47
2021/09/21 08:50:37;;;;;;;4.73;4.23;;;19.50;99.90;;;;;;5056415;28;20776;-47
2021/09/21 08:53:04;;;;;;;6.97;4.10;;;18.90;99.90;;;;;;5057256;28;20429;-46
2021/09/21 08:55:31;;;;;;;5.00;3.87;;;18.60;99.90;;;;;;5056504;28;20464;-48
2021/09/21 08:58:00;;;;;;;4.07;3.77;;;18.90;99.90;;;;;;5057059;28;20466;-48
2021/09/21 09:00:30;;;;;;;3.93;3.47;;;19.20;99.90;;;;;;5056708;28;20563;-44
2021/09/21 09:03:07;;;;;;;4.70;3.57;;;19.40;99.90;;;;;;5056169;28;20466;-47
2021/09/21 09:05:45;;;;;;;3.63;3.33;;;19.70;99.90;;;;;;5056704;28;20528;-46
2021/09/21 09:08:12;;;;;;;5.93;3.90;;;20.20;99.90;;;;;;5056942;28;20814;-45
2021/09/21 09:10:40;;;;;;;3.77;3.50;;;20.10;99.90;;;;;;5056340;28;20462;-48
2021/09/21 09:13:21;;;;;;;5.10;3.90;;;20.60;99.90;;;;;;5056348;28;20458;-51
2021/09/21 09:15:55;;;;;;;4.20;3.90;;;20.40;99.90;;;;;;5056915;28;20966;-50
2021/09/21 09:18:28;;;;;;;3.67;3.37;;;19.70;99.90;;;;;;5056687;28;20458;-48
2021/09/21 09:20:58;;;;;;;4.10;3.70;;;20.00;99.90;;;;;;5056581;28;20456;-46
2021/09/21 09:23:29;;;;;;;4.97;4.57;;;19.90;99.90;;;;;;5056681;28;20973;-46
2021/09/21 09:25:58;;;;;;;4.87;4.37;;;20.40;99.90;;;;;;5056629;28;20458;-48
2021/09/21 09:28:28;;;;;;;4.13;3.70;;;20.40;99.90;;;;;;5057003;28;20460;-45
2021/09/21 09:30:59;;;;;;;4.03;3.63;;;20.20;99.90;;;;;;5055603;28;20547;-48
2021/09/21 09:33:26;;;;;;;4.13;3.77;;;20.10;99.90;;;;;;5056434;28;20894;-45
2021/09/21 09:35:53;;;;;;;4.13;3.53;;;20.20;99.90;;;;;;5056682;28;20465;-46
2021/09/21 09:38:22;;;;;;;4.03;3.40;;;20.00;99.90;;;;;;5056385;28;20528;-45
2021/09/21 09:40:53;;;;;;;5.07;4.33;;;19.90;99.90;;;;;;5054567;28;20455;-46
2021/09/21 09:43:25;;;;;;;5.10;4.23;;;20.00;99.90;;;;;;5055320;28;20754;-45
2021/09/21 09:45:54;;;;;;;4.30;4.00;;;19.80;99.90;;;;;;5054492;28;20465;-47
2021/09/21 09:48:23;;;;;;;4.17;3.77;;;19.80;99.90;;;;;;5055998;28;20958;-48
2021/09/21 09:50:52;;;;;;;5.47;4.47;;;19.90;99.90;;;;;;5056037;28;20458;-53
2021/09/21 09:53:25;;;;;;;4.60;4.20;;;19.50;99.90;;;;;;5051652;28;20470;-49
2021/09/21 09:55:54;;;;;;;4.60;4.17;;;20.10;99.90;;;;;;5043387;28;20498;-45
2021/09/21 09:58:24;;;;;;;7.37;3.80;;;20.80;99.90;;;;;;5044884;28;20906;-50
2021/09/21 10:00:54;;;;;;;5.00;4.50;;;21.20;99.90;;;;;;5056253;28;20779;-52
2021/09/21 10:03:21;;;;;;;4.60;4.17;;;21.40;99.90;;;;;;5038502;28;20471;-46
2021/09/21 10:05:51;;;;;;;5.03;3.57;;;21.70;99.90;;;;;;5036285;28;20459;-45
2021/09/21 10:08:18;;;;;;;6.10;4.70;;;22.00;99.90;;;;;;5039174;28;20463;-46
2021/09/21 10:10:46;;;;;;;5.33;4.83;;;21.70;99.90;;;;;;5039083;28;20458;-47
2021/09/21 10:13:16;;;;;;;4.67;4.27;;;21.80;99.90;;;;;;5039504;28;20463;-54
2021/09/21 10:15:44;;;;;;;6.83;3.60;;;21.20;99.90;;;;;;5039887;28;20459;-48
2021/09/21 10:18:17;;;;;;;5.93;4.20;;;20.30;99.90;;;;;;5039861;28;20494;-53
2021/09/21 10:20:56;;;;;;;4.73;4.10;;;20.60;99.90;;;;;;5038893;28;20546;-49
2021/09/21 10:23:32;;;;;;;4.30;3.60;;;20.90;99.90;;;;;;5039776;28;20521;-48
2021/09/21 10:26:12;;;;;;;5.60;4.07;;;21.20;99.90;;;;;;5039511;28;20462;-47
2021/09/21 10:28:40;;;;;;;4.33;4.03;;;21.60;99.90;;;;;;5039716;28;20538;-45
2021/09/21 10:31:13;;;;;;;3.80;3.60;;;22.10;99.90;;;;;;5039241;28;20834;-46
2021/09/21 10:33:44;;;;;;;3.67;3.23;;;22.40;99.90;;;;;;5039785;28;20495;-51
2021/09/21 10:36:18;;;;;;;3.50;3.20;;;22.80;99.90;;;;;;5055803;28;20493;-52
2021/09/21 10:38:56;;;;;;;3.67;3.47;;;22.50;99.90;;;;;;5058953;28;20625;-46
2021/09/21 10:41:24;;;;;;;4.00;3.70;;;21.80;99.90;;;;;;5059197;28;20510;-48
2021/09/21 10:43:59;;;;;;;3.73;3.43;;;22.10;99.90;;;;;;5059082;28;20454;-49
2021/09/21 10:46:42;;;;;;;6.43;3.83;;;22.40;99.90;;;;;;5056900;28;20459;-49
2021/09/21 10:49:31;;;;;;;3.63;3.33;;;22.40;99.90;;;;;;5058056;28;20834;-45
2021/09/21 10:52:00;;;;;;;4.20;3.90;;;22.30;99.90;;;;;;5057148;28;20581;-55
2021/09/21 10:54:34;;;;;;;4.37;4.07;;;21.50;99.90;;;;;;5054913;28;20556;-48
2021/09/21 10:57:21;;;;;;;5.10;3.63;;;21.20;99.90;;;;;;5046763;28;20483;-49
2021/09/21 10:59:56;;;;;;;3.33;3.13;;;21.90;99.90;;;;;;5045506;28;20480;-53
2021/09/21 11:02:24;;;;;;;4.23;3.83;;;22.10;99.90;;;;;;5038041;28;20532;-49
2021/09/21 11:04:56;;;;;;;3.87;3.47;;;22.50;99.90;;;;;;5044680;28;20479;-55
2021/09/21 11:07:23;;;;;;;3.70;3.40;;;22.50;99.90;;;;;;5037312;28;20469;-53
2021/09/21 11:09:52;;;;;;;3.50;3.20;;;22.40;99.90;;;;;;5042727;28;20445;-50
2021/09/21 11:12:25;;;;;;;3.40;3.20;;;22.20;99.90;;;;;;5056416;28;20482;-50
2021/09/21 11:14:54;;;;;;;3.97;3.60;;;22.10;99.90;;;;;;5056796;28;20493;-51
2021/09/21 11:17:26;;;;;;;4.93;4.07;;;22.40;99.90;;;;;;5044655;28;20467;-50
2021/09/21 11:19:59;;;;;;;4.03;3.67;;;22.30;99.90;;;;;;5037916;28;20478;-47
2021/09/21 11:22:30;;;;;;;3.90;3.60;;;22.50;99.90;;;;;;5046167;28;20466;-51
2021/09/21 11:25:05;;;;;;;4.83;3.20;;;22.60;99.90;;;;;;5046201;28;20478;-47
2021/09/21 11:27:36;;;;;;;3.67;3.20;;;22.50;99.90;;;;;;5054676;28;20467;-47
2021/09/21 11:30:07;;;;;;;3.63;3.33;;;22.60;99.90;;;;;;5041144;28;20494;-47
2021/09/21 11:32:35;;;;;;;4.10;3.80;;;22.40;99.90;;;;;;5041675;28;20494;-50
2021/09/21 11:35:09;;;;;;;4.40;3.73;;;22.50;99.90;;;;;;5041252;28;20513;-46
2021/09/21 11:37:41;;;;;;;4.73;4.37;;;22.00;99.90;;;;;;5043066;28;20478;-46
2021/09/21 11:40:22;;;;;;;3.73;3.43;;;22.30;99.90;;;;;;5057324;28;20428;-45
2021/09/21 11:42:49;;;;;;;3.60;3.40;;;21.90;99.90;;;;;;5057021;28;20450;-46
2021/09/21 11:45:17;;;;;;;3.80;3.50;;;21.80;99.90;;;;;;5057868;28;20455;-45
2021/09/21 11:47:48;;;;;;;5.30;3.40;;;21.20;99.90;;;;;;5056287;28;20450;-55
2021/09/21 11:50:18;;;;;;;3.47;3.17;;;20.70;99.90;;;;;;5055481;28;20967;-45
2021/09/21 11:52:53;;;;;;;3.50;3.30;;;21.00;99.90;;;;;;5056188;28;20826;-49
2021/09/21 11:55:25;;;;;;;3.60;3.40;;;20.90;99.90;;;;;;5056145;28;20566;-48
2021/09/21 11:57:53;;;;;;;4.90;2.80;;;21.40;99.90;;;;;;5054119;28;20462;-47
2021/09/21 12:00:23;;;;;;;3.80;3.30;;;21.40;99.90;;;;;;5056378;28;20754;-47
2021/09/21 12:02:59;;;;;;;3.40;3.17;;;21.50;99.90;;;;;;5054285;28;20869;-50
2021/09/21 12:05:30;;;;;;;4.00;3.80;;;22.10;99.90;;;;;;5056820;28;20489;-48
2021/09/21 12:08:02;;;;;;;3.20;3.00;;;22.10;99.90;;;;;;5056215;28;20461;-47
2021/09/21 12:10:30;;;;;;;3.40;3.13;;;22.50;99.90;;;;;;5051651;28;20450;-48
2021/09/21 12:13:10;;;;;;;3.70;3.40;;;23.00;99.90;;;;;;5053693;28;20490;-50
2021/09/21 12:15:38;;;;;;;3.20;3.00;;;22.70;99.90;;;;;;5054176;28;20458;-49
2021/09/21 12:18:08;;;;;;;2.70;2.50;;;22.70;99.90;;;;;;5053758;28;20471;-45
2021/09/21 12:20:36;;;;;;;5.47;3.40;;;21.40;99.90;;;;;;5056896;28;20454;-54
2021/09/21 12:23:08;;;;;;;3.47;3.17;;;20.80;99.90;;;;;;5055699;28;20512;-48
2021/09/21 12:25:36;;;;;;;3.63;3.30;;;21.10;99.90;;;;;;5055291;28;21001;-45
2021/09/21 12:28:08;;;;;;;3.90;3.60;;;20.60;99.90;;;;;;5052397;28;20475;-47
2021/09/21 12:30:43;;;;;;;3.70;3.40;;;20.70;99.90;;;;;;5056262;28;20544;-52
2021/09/21 12:33:12;;;;;;;4.40;3.27;;;20.70;99.90;;;;;;5056818;28;20493;-46
2021/09/21 12:35:44;;;;;;;3.90;3.53;;;20.90;99.90;;;;;;5056914;28;20458;-47
2021/09/21 12:38:13;;;;;;;3.60;3.30;;;21.30;99.90;;;;;;5056607;28;20468;-49
2021/09/21 12:40:53;;;;;;;3.20;3.00;;;21.30;99.90;;;;;;5056410;28;20572;-50
2021/09/21 12:43:23;;;;;;;3.27;3.00;;;21.50;99.90;;;;;;5056811;28;20457;-52
2021/09/21 12:45:57;;;;;;;3.53;3.23;;;21.10;99.90;;;;;;5056175;28;20497;-48
2021/09/21 12:48:29;;;;;;;3.10;2.80;;;20.70;99.90;;;;;;5056814;28;20462;-49
2021/09/21 12:51:01;;;;;;;3.00;2.80;;;21.20;99.90;;;;;;5056286;28;20532;-51
2021/09/21 12:53:28;;;;;;;3.93;2.83;;;21.60;99.90;;;;;;5056976;28;20547;-51
2021/09/21 12:55:57;;;;;;;4.07;3.77;;;21.10;99.90;;;;;;5056782;28;20461;-52
2021/09/21 12:58:35;;;;;;;3.97;3.10;;;21.40;99.90;;;;;;5057139;28;20461;-45
2021/09/21 13:01:05;;;;;;;3.67;3.40;;;20.70;99.90;;;;;;5056508;28;20480;-51
2021/09/21 13:03:36;;;;;;;3.63;3.33;;;20.40;99.90;;;;;;5056862;28;20462;-51
2021/09/21 13:06:06;;;;;;;3.63;3.37;;;21.20;99.90;;;;;;5056038;28;20480;-52
2021/09/21 13:08:33;;;;;;;4.93;3.77;;;21.90;99.90;;;;;;5037431;28;20471;-52
2021/09/21 13:11:06;;;;;;;3.93;3.20;;;21.40;99.90;;;;;;5050401;28;20458;-49
2021/09/21 13:13:35;;;;;;;3.90;3.37;;;22.00;99.90;;;;;;5056748;28;20498;-45
2021/09/21 13:16:07;;;;;;;4.10;3.80;;;21.80;99.90;;;;;;5056798;28;20527;-48
2021/09/21 13:18:34;;;;;;;4.53;4.13;;;22.10;99.90;;;;;;5057055;28;20467;-49
2021/09/21 13:21:01;;;;;;;4.50;3.50;;;22.20;99.90;;;;;;5056606;28;20524;-46
2021/09/21 13:23:30;;;;;;;4.50;4.20;;;21.10;99.90;;;;;;5056632;28;20511;-49
2021/09/21 13:25:59;;;;;;;3.90;3.60;;;20.00;99.90;;;;;;5056533;28;20466;-45